Time;durP1;ratioP1;P1;durP2;ratioP2;P2;SDS_P1;SDS_P2;PMS_P1;PMS_P2;Temp;Humidity;BMP_temperature;BMP_pressure;BME280_temperature;BME280_humidity;BME280_pressure;Samples;Min_cycle;Max_cycle;Signal;HPM_P1;HPM_P2
2022/01/23 00:00:45;;;;;;;12.27;5.90;;;6.00;99.90;;;;;;5052799;28;20076;-87
2022/01/23 00:03:17;;;;;;;13.10;5.43;;;6.00;99.90;;;;;;5051320;28;20032;-87
2022/01/23 00:05:45;;;;;;;14.20;6.10;;;6.00;99.90;;;;;;5067642;28;20041;-87
2022/01/23 00:08:13;;;;;;;13.55;5.25;;;6.00;99.90;;;;;;5064703;28;20066;-87
2022/01/23 00:10:39;;;;;;;12.80;5.25;;;6.00;99.90;;;;;;5069030;28;20537;-86
2022/01/23 00:13:28;;;;;;;15.07;6.28;;;6.00;99.90;;;;;;5052250;28;20060;-87
2022/01/23 00:18:37;;;;;;;16.48;5.45;;;6.00;99.90;;;;;;5067886;28;20659;-86
2022/01/23 00:21:03;;;;;;;13.07;5.45;;;6.00;99.90;;;;;;5049681;28;20135;-87
2022/01/23 00:30:16;;;;;;;11.02;5.22;;;6.00;99.90;;;;;;5051250;28;20052;-87
2022/01/23 00:31:43;;;;;;;15.25;5.18;;;6.00;99.90;;;;;;5067868;28;20434;-87
2022/01/23 00:34:09;;;;;;;13.93;5.20;;;5.90;99.90;;;;;;5068304;28;20032;-87
2022/01/23 00:36:37;;;;;;;14.57;5.45;;;5.90;99.90;;;;;;5053287;28;20048;-87
2022/01/23 00:39:04;;;;;;;11.73;5.30;;;5.90;99.90;;;;;;5051637;28;20409;-87
2022/01/23 00:41:29;;;;;;;13.48;5.15;;;5.90;99.90;;;;;;5067230;28;20037;-86
2022/01/23 00:43:55;;;;;;;10.38;5.20;;;5.90;99.90;;;;;;5100071;28;20600;-87
2022/01/23 00:46:30;;;;;;;15.65;5.35;;;5.90;99.90;;;;;;5047157;28;20040;-86
2022/01/23 00:51:23;;;;;;;11.38;5.00;;;5.90;99.90;;;;;;5068337;28;20055;-86
2022/01/23 00:53:49;;;;;;;14.32;5.40;;;5.90;99.90;;;;;;5049827;28;20035;-87
2022/01/23 00:56:14;;;;;;;9.43;5.25;;;5.90;99.90;;;;;;5051056;28;20036;-87
2022/01/23 00:58:40;;;;;;;13.45;5.70;;;5.90;99.90;;;;;;5050599;28;20127;-87
2022/01/23 01:01:06;;;;;;;12.73;5.13;;;5.90;99.90;;;;;;5050532;28;20032;-87
2022/01/23 01:03:32;;;;;;;12.85;5.50;;;5.90;99.90;;;;;;5067817;28;20032;-86
2022/01/23 01:05:59;;;;;;;9.38;5.35;;;5.90;99.90;;;;;;5082793;28;20037;-87
2022/01/23 01:08:25;;;;;;;12.60;4.90;;;5.90;99.90;;;;;;5049735;28;20086;-86
2022/01/23 01:11:16;;;;;;;13.48;5.22;;;5.90;99.90;;;;;;5051549;28;20070;-87
2022/01/23 01:14:06;;;;;;;11.55;5.07;;;6.00;99.90;;;;;;5049958;28;20028;-87
2022/01/23 01:16:57;;;;;;;15.50;5.25;;;5.90;99.90;;;;;;5066095;28;20040;-87
2022/01/23 01:35:40;;;;;;;15.38;5.05;;;5.90;99.90;;;;;;5064774;28;20593;-86
2022/01/23 01:38:05;;;;;;;14.23;5.60;;;5.90;99.90;;;;;;5065084;28;20033;-87
2022/01/23 01:40:32;;;;;;;16.60;5.60;;;5.90;99.90;;;;;;5048535;28;20418;-87
2022/01/23 01:42:58;;;;;;;16.00;5.35;;;6.00;99.90;;;;;;5065261;28;20048;-87
2022/01/23 01:45:26;;;;;;;12.10;5.50;;;6.00;99.90;;;;;;5047858;28;20297;-86
2022/01/23 01:47:54;;;;;;;13.65;5.38;;;6.00;99.90;;;;;;5065503;28;20236;-86
2022/01/23 01:50:20;;;;;;;16.05;4.93;;;6.00;99.90;;;;;;5064831;28;20309;-87
2022/01/23 01:52:46;;;;;;;14.27;5.13;;;6.00;99.90;;;;;;5048119;28;20203;-86
2022/01/23 01:55:17;;;;;;;12.57;5.40;;;6.00;99.90;;;;;;5078695;28;20265;-86
2022/01/23 01:57:52;;;;;;;15.85;5.57;;;6.00;99.90;;;;;;5064602;28;20044;-86
2022/01/23 02:10:56;;;;;;;16.25;5.45;;;6.00;99.90;;;;;;5095687;28;20525;-86
2022/01/23 02:13:40;;;;;;;17.30;5.82;;;5.90;99.90;;;;;;5080776;28;20409;-87
2022/01/23 02:56:46;;;;;;;17.52;6.53;;;5.90;99.90;;;;;;5101949;28;20083;-87
2022/01/23 02:59:45;;;;;;;13.10;5.82;;;5.90;99.90;;;;;;5065949;28;20449;-87
2022/01/23 03:02:12;;;;;;;13.95;6.18;;;5.90;99.90;;;;;;5066415;28;20045;-87
2022/01/23 03:04:47;;;;;;;20.65;7.10;;;5.90;99.90;;;;;;5065733;28;20560;-87
2022/01/23 03:10:04;;;;;;;19.85;6.63;;;5.90;99.90;;;;;;5066816;28;20068;-87
2022/01/23 03:26:28;;;;;;;19.60;6.90;;;5.90;99.90;;;;;;5065140;28;20052;-87
2022/01/23 03:32:11;;;;;;;16.73;7.05;;;5.90;99.90;;;;;;5048713;28;20119;-87
2022/01/23 03:34:36;;;;;;;14.63;7.10;;;5.90;99.90;;;;;;5029219;28;20047;-86
2022/01/23 03:37:02;;;;;;;21.40;7.20;;;6.00;99.90;;;;;;5065809;28;20037;-86
2022/01/23 03:39:28;;;;;;;17.42;7.15;;;6.00;99.90;;;;;;5053912;28;20122;-87
2022/01/23 03:41:53;;;;;;;21.17;7.70;;;6.00;99.90;;;;;;5070351;28;20055;-86
2022/01/23 03:44:22;;;;;;;15.55;6.40;;;6.00;99.90;;;;;;5050557;28;20036;-88
2022/01/23 03:49:31;;;;;;;15.18;6.65;;;6.00;99.90;;;;;;5061749;28;20174;-86
2022/01/23 03:52:02;;;;;;;22.17;7.35;;;6.00;99.90;;;;;;5041440;28;20111;-86
2022/01/23 03:54:29;;;;;;;17.10;6.93;;;6.00;99.90;;;;;;5050620;28;20055;-86
2022/01/23 03:56:57;;;;;;;19.85;7.10;;;5.90;99.90;;;;;;5068052;28;20040;-87
2022/01/23 03:59:22;;;;;;;14.77;6.90;;;6.00;99.90;;;;;;5050443;28;20040;-86
2022/01/23 04:01:48;;;;;;;16.73;7.57;;;6.00;99.90;;;;;;5066380;28;20052;-86
2022/01/23 04:06:58;;;;;;;19.85;7.80;;;5.90;99.90;;;;;;5063999;28;20036;-87
2022/01/23 04:09:23;;;;;;;17.45;7.60;;;5.90;99.90;;;;;;5100550;28;20456;-87
2022/01/23 04:11:50;;;;;;;22.30;7.72;;;5.90;99.90;;;;;;5067505;28;20159;-87
2022/01/23 04:14:17;;;;;;;22.55;8.27;;;5.90;99.90;;;;;;5064818;28;20049;-87
2022/01/23 04:17:16;;;;;;;23.05;8.07;;;5.90;99.90;;;;;;5050874;28;20071;-87
2022/01/23 04:19:54;;;;;;;20.63;7.75;;;5.90;99.90;;;;;;5066106;28;20098;-87
2022/01/23 05:00:34;;;;;;;17.40;7.80;;;5.90;99.90;;;;;;5063962;28;20040;-87
2022/01/23 05:05:32;;;;;;;15.30;7.00;;;5.90;99.90;;;;;;5066006;28;20047;-87
2022/01/23 05:08:00;;;;;;;16.27;6.47;;;5.90;99.90;;;;;;5065998;28;20072;-87
2022/01/23 05:10:26;;;;;;;13.60;6.57;;;5.90;99.90;;;;;;5049916;28;20044;-87
2022/01/23 05:12:52;;;;;;;14.57;7.10;;;5.90;99.90;;;;;;5049611;28;20111;-87
2022/01/23 05:15:17;;;;;;;19.23;6.78;;;5.90;99.90;;;;;;5047944;28;20036;-87
2022/01/23 05:17:43;;;;;;;16.55;6.45;;;5.90;99.90;;;;;;5049583;28;20113;-87
2022/01/23 05:20:11;;;;;;;15.88;7.30;;;5.80;99.90;;;;;;5047902;28;20044;-87
2022/01/23 05:22:42;;;;;;;12.77;6.18;;;5.80;99.90;;;;;;5064235;28;20047;-87
2022/01/23 05:25:20;;;;;;;16.50;6.68;;;5.90;99.90;;;;;;5065152;28;20040;-87
2022/01/23 05:27:46;;;;;;;14.00;6.43;;;5.90;99.90;;;;;;5062681;28;20409;-87
2022/01/23 05:30:12;;;;;;;15.23;6.47;;;5.90;99.90;;;;;;5045810;28;20032;-87
2022/01/23 05:32:41;;;;;;;15.35;6.47;;;5.90;99.90;;;;;;5044358;28;20032;-87
2022/01/23 05:35:10;;;;;;;15.32;6.47;;;5.90;99.90;;;;;;5061792;28;20051;-87
2022/01/23 05:37:37;;;;;;;14.38;6.25;;;5.90;99.90;;;;;;5087352;28;20032;-87
2022/01/23 05:40:04;;;;;;;14.00;5.95;;;5.90;99.90;;;;;;5091735;28;20060;-87
2022/01/23 05:42:30;;;;;;;15.43;6.40;;;5.90;99.90;;;;;;5049574;28;20534;-87
2022/01/23 05:44:55;;;;;;;13.90;6.85;;;5.90;99.90;;;;;;5062062;28;20119;-87
2022/01/23 05:47:21;;;;;;;17.38;7.30;;;5.90;99.90;;;;;;5048559;28;20040;-87
2022/01/23 05:49:47;;;;;;;16.90;6.82;;;5.90;99.90;;;;;;5046965;28;20474;-87
2022/01/23 05:52:13;;;;;;;16.60;7.03;;;5.90;99.90;;;;;;5065878;28;20044;-87
2022/01/23 05:54:39;;;;;;;18.27;6.57;;;5.90;99.90;;;;;;5048609;28;20380;-87
2022/01/23 05:57:05;;;;;;;15.43;6.35;;;5.90;99.90;;;;;;5082347;28;20035;-87
2022/01/23 05:59:30;;;;;;;17.55;6.70;;;5.90;99.90;;;;;;5065496;28;20518;-87
2022/01/23 06:01:56;;;;;;;14.55;6.65;;;5.80;99.90;;;;;;5039812;28;20441;-87
2022/01/23 06:04:24;;;;;;;15.93;7.03;;;5.90;99.90;;;;;;5080468;28;20498;-88
2022/01/23 06:06:50;;;;;;;17.40;7.35;;;5.90;99.90;;;;;;5058456;28;20033;-87
2022/01/23 06:09:18;;;;;;;17.98;7.30;;;5.90;99.90;;;;;;5047834;28;20046;-87
2022/01/23 06:11:45;;;;;;;14.75;6.82;;;5.90;99.90;;;;;;5063277;28;20040;-87
2022/01/23 06:14:10;;;;;;;15.55;6.90;;;5.90;99.90;;;;;;5046621;28;20157;-87
2022/01/23 06:16:37;;;;;;;13.27;6.70;;;5.80;99.90;;;;;;5048378;28;20614;-87
2022/01/23 06:19:03;;;;;;;16.60;6.68;;;5.90;99.90;;;;;;5048513;28;20036;-87
2022/01/23 06:21:29;;;;;;;18.65;7.80;;;5.80;99.90;;;;;;5065530;28;20484;-87
2022/01/23 06:24:06;;;;;;;16.25;8.07;;;5.80;99.90;;;;;;5049409;28;20032;-87
2022/01/23 06:26:46;;;;;;;13.90;7.18;;;5.90;99.90;;;;;;5048199;28;20116;-87
2022/01/23 06:29:14;;;;;;;16.77;7.20;;;5.80;99.90;;;;;;5046878;28;20475;-87
2022/01/23 06:31:40;;;;;;;14.85;7.53;;;5.90;99.90;;;;;;5065210;28;20037;-87
2022/01/23 06:34:07;;;;;;;15.27;6.35;;;5.80;99.90;;;;;;5042955;28;20660;-86
2022/01/23 06:36:34;;;;;;;18.50;7.55;;;5.90;99.90;;;;;;5064929;28;20205;-87
2022/01/23 06:39:01;;;;;;;16.45;7.45;;;5.80;99.90;;;;;;5098456;28;20123;-87
2022/01/23 06:41:26;;;;;;;20.10;7.03;;;5.80;99.90;;;;;;5048678;28;20441;-87
2022/01/23 06:43:52;;;;;;;16.67;7.22;;;5.80;99.90;;;;;;5047038;28;20053;-87
2022/01/23 06:46:18;;;;;;;15.68;6.53;;;5.80;99.90;;;;;;5048099;28;20036;-87
2022/01/23 06:48:43;;;;;;;15.70;7.00;;;5.80;99.90;;;;;;5047747;28;20046;-87
2022/01/23 06:51:09;;;;;;;18.38;7.22;;;5.80;99.90;;;;;;5047391;28;20075;-87
2022/01/23 06:53:34;;;;;;;21.98;7.93;;;5.80;99.90;;;;;;5047141;28;20036;-87
2022/01/23 06:56:00;;;;;;;17.63;7.13;;;5.80;99.90;;;;;;5063660;28;20124;-87
2022/01/23 06:58:26;;;;;;;18.00;7.28;;;5.80;99.90;;;;;;5046801;28;20481;-86
2022/01/23 07:00:51;;;;;;;19.23;8.30;;;5.80;99.90;;;;;;5049529;28;20195;-87
2022/01/23 07:03:17;;;;;;;18.73;7.45;;;5.80;99.90;;;;;;5046080;28;20035;-87
2022/01/23 07:05:42;;;;;;;20.45;7.95;;;5.80;99.90;;;;;;5062168;28;20409;-87
2022/01/23 07:08:08;;;;;;;21.20;8.07;;;5.80;99.90;;;;;;5048864;28;20193;-87
2022/01/23 07:10:33;;;;;;;22.70;8.55;;;5.80;99.90;;;;;;5065041;28;20448;-87
2022/01/23 07:12:59;;;;;;;19.92;8.75;;;5.80;99.90;;;;;;5061555;28;20059;-87
2022/01/23 07:15:25;;;;;;;18.00;8.32;;;5.80;99.90;;;;;;5095152;28;20090;-87
2022/01/23 07:17:51;;;;;;;20.55;8.35;;;5.80;99.90;;;;;;5064506;28;20028;-87
2022/01/23 07:20:17;;;;;;;21.30;8.43;;;5.90;99.90;;;;;;5045899;28;20053;-87
2022/01/23 07:22:42;;;;;;;16.70;8.02;;;5.80;99.90;;;;;;5064710;28;20123;-87
2022/01/23 07:25:09;;;;;;;20.80;8.10;;;5.80;99.90;;;;;;5047813;28;20146;-87
2022/01/23 07:27:44;;;;;;;16.50;7.45;;;5.80;99.90;;;;;;5047384;28;20068;-86
2022/01/23 07:30:23;;;;;;;20.63;7.90;;;5.80;99.90;;;;;;5065391;28;20111;-87
2022/01/23 07:32:48;;;;;;;20.55;8.65;;;5.80;99.90;;;;;;5096070;28;20033;-87
2022/01/23 07:35:14;;;;;;;23.05;7.90;;;5.80;99.90;;;;;;5047188;28;20484;-87
2022/01/23 07:37:40;;;;;;;18.23;7.40;;;5.80;99.90;;;;;;5065804;28;20036;-87
2022/01/23 07:40:06;;;;;;;17.80;7.50;;;5.80;99.90;;;;;;5067179;28;20135;-87
2022/01/23 07:42:32;;;;;;;16.63;6.70;;;5.80;99.90;;;;;;5079900;28;20037;-88
2022/01/23 07:44:57;;;;;;;19.60;8.32;;;5.80;99.90;;;;;;5051015;28;20040;-88
2022/01/23 07:47:23;;;;;;;17.67;6.85;;;5.80;99.90;;;;;;5066927;28;20127;-87
2022/01/23 07:49:50;;;;;;;16.15;7.25;;;5.80;99.90;;;;;;5051567;28;20036;-87
2022/01/23 07:52:17;;;;;;;16.35;6.90;;;5.80;99.90;;;;;;5048851;28;20062;-87
2022/01/23 07:54:43;;;;;;;17.10;7.35;;;5.80;99.90;;;;;;5045971;28;20048;-87
2022/01/23 07:57:08;;;;;;;15.27;6.30;;;5.90;99.90;;;;;;5049848;28;20032;-85
2022/01/23 07:59:34;;;;;;;18.45;6.78;;;5.80;99.90;;;;;;5049705;28;20044;-89
2022/01/23 08:02:01;;;;;;;16.85;7.43;;;5.80;99.90;;;;;;5064290;28;20094;-88
2022/01/23 08:04:27;;;;;;;13.60;6.82;;;5.90;99.90;;;;;;5051405;28;20459;-87
2022/01/23 08:09:59;;;;;;;14.43;6.57;;;5.90;99.90;;;;;;5021937;28;20044;-87
2022/01/23 08:12:26;;;;;;;14.13;6.28;;;5.90;99.90;;;;;;5027382;28;20045;-87
2022/01/23 08:14:55;;;;;;;14.52;6.30;;;5.90;99.90;;;;;;5040390;28;20557;-87
2022/01/23 08:17:24;;;;;;;14.35;5.88;;;5.90;99.90;;;;;;5043552;28;20040;-87
2022/01/23 08:20:03;;;;;;;16.02;6.60;;;5.90;99.90;;;;;;5045142;28;20048;-88
2022/01/23 08:22:34;;;;;;;12.98;6.03;;;5.90;99.90;;;;;;5045089;28;20044;-88
2022/01/23 08:25:03;;;;;;;17.02;6.15;;;5.90;99.90;;;;;;5047817;28;20032;-88
2022/01/23 08:27:29;;;;;;;14.48;5.72;;;5.90;99.90;;;;;;5097686;27;20032;-88
2022/01/23 08:29:56;;;;;;;12.20;5.35;;;6.00;99.90;;;;;;5049100;28;20036;-88
2022/01/23 08:32:21;;;;;;;10.15;4.82;;;6.00;99.90;;;;;;5065199;28;20564;-89
2022/01/23 08:34:47;;;;;;;8.15;4.30;;;5.90;99.90;;;;;;5069583;28;20037;-88
2022/01/23 08:37:13;;;;;;;14.07;6.13;;;6.00;99.90;;;;;;5061830;28;20071;-88
2022/01/23 08:39:40;;;;;;;8.02;4.63;;;6.00;99.90;;;;;;5069486;28;20049;-87
2022/01/23 08:42:09;;;;;;;13.05;4.90;;;6.00;99.90;;;;;;5045605;28;20115;-88
2022/01/23 08:44:35;;;;;;;9.85;5.35;;;6.00;99.90;;;;;;5054899;28;20453;-88
2022/01/23 08:47:01;;;;;;;8.77;4.57;;;6.00;99.90;;;;;;5068840;28;20040;-87
2022/01/23 08:49:29;;;;;;;11.77;5.13;;;6.00;99.90;;;;;;5065882;28;20036;-87
2022/01/23 08:51:55;;;;;;;12.45;5.30;;;6.00;99.90;;;;;;5066931;28;20033;-88
2022/01/23 08:54:21;;;;;;;10.80;5.13;;;6.00;99.90;;;;;;5051198;28;20043;-88
2022/01/23 08:56:47;;;;;;;10.55;5.40;;;6.10;99.90;;;;;;5064017;28;20083;-88
2022/01/23 08:59:13;;;;;;;13.65;6.50;;;6.00;99.90;;;;;;5079771;28;20086;-88
2022/01/23 09:01:38;;;;;;;13.02;6.03;;;6.10;99.90;;;;;;5045198;28;20441;-87
2022/01/23 09:04:05;;;;;;;12.88;5.72;;;6.10;99.90;;;;;;5040026;28;20072;-88
2022/01/23 09:06:31;;;;;;;13.27;5.90;;;6.10;99.90;;;;;;5044005;28;20045;-88
2022/01/23 09:09:01;;;;;;;10.57;5.57;;;6.10;99.90;;;;;;5063753;28;20078;-88
2022/01/23 09:14:06;;;;;;;13.20;5.47;;;6.20;99.90;;;;;;5063097;28;20513;-87
2022/01/23 09:16:40;;;;;;;11.02;4.85;;;6.20;99.90;;;;;;5061149;28;20119;-88
2022/01/23 09:19:07;;;;;;;11.88;5.03;;;6.20;99.90;;;;;;5040551;28;20100;-88
2022/01/23 09:21:32;;;;;;;9.85;4.63;;;6.30;99.90;;;;;;5064320;28;20051;-88
2022/01/23 09:23:59;;;;;;;6.35;3.65;;;6.30;99.90;;;;;;5045975;28;20028;-89
2022/01/23 09:26:24;;;;;;;6.28;2.90;;;6.30;99.90;;;;;;5048571;28;20131;-89
2022/01/23 09:28:56;;;;;;;8.52;3.53;;;6.40;99.90;;;;;;5055811;28;20127;-89
2022/01/23 09:31:44;;;;;;;6.70;3.50;;;6.40;99.90;;;;;;5067767;28;20470;-88
2022/01/23 09:34:10;;;;;;;7.25;3.10;;;6.40;99.90;;;;;;5036701;28;20043;-89
2022/01/23 09:36:36;;;;;;;6.30;2.90;;;6.40;99.90;;;;;;5052905;28;20044;-89
2022/01/23 09:39:02;;;;;;;7.68;3.20;;;6.40;99.90;;;;;;5040190;28;20066;-89
2022/01/23 09:41:30;;;;;;;6.50;2.80;;;6.40;99.90;;;;;;5037684;28;20495;-88
2022/01/23 09:43:59;;;;;;;7.07;3.20;;;6.40;99.90;;;;;;5043520;28;20059;-88
2022/01/23 09:46:25;;;;;;;7.22;3.58;;;6.40;99.90;;;;;;5054581;28;20070;-88
2022/01/23 09:48:52;;;;;;;4.93;2.65;;;6.40;99.90;;;;;;5071237;28;20032;-89
2022/01/23 09:51:21;;;;;;;6.70;3.10;;;6.50;99.90;;;;;;5052849;28;20041;-89
2022/01/23 09:53:47;;;;;;;4.75;2.58;;;6.50;99.90;;;;;;5049806;28;20040;-88
2022/01/23 09:56:15;;;;;;;7.95;2.08;;;6.50;99.90;;;;;;5077042;28;20044;-88
2022/01/23 09:58:40;;;;;;;4.15;2.20;;;6.50;99.90;;;;;;5088666;28;20041;-90
2022/01/23 10:01:06;;;;;;;5.43;2.08;;;6.50;99.90;;;;;;5092164;28;20040;-88
2022/01/23 10:03:32;;;;;;;4.75;2.25;;;6.60;99.90;;;;;;5045507;28;20261;-89
2022/01/23 10:05:57;;;;;;;2.47;1.20;;;6.60;99.90;;;;;;5080600;28;20501;-88
2022/01/23 10:08:28;;;;;;;3.63;1.40;;;6.60;99.90;;;;;;5048842;28;20028;-88
2022/01/23 10:10:55;;;;;;;2.13;0.50;;;6.60;99.90;;;;;;5064321;28;20040;-88
2022/01/23 10:13:23;;;;;;;1.77;0.77;;;6.60;99.90;;;;;;5082129;28;20036;-89
2022/01/23 10:15:48;;;;;;;3.78;1.30;;;6.60;99.90;;;;;;5046516;28;20047;-88
2022/01/23 10:18:15;;;;;;;2.97;1.45;;;6.60;99.90;;;;;;5063817;28;20041;-89
2022/01/23 10:20:41;;;;;;;2.72;1.55;;;6.70;99.90;;;;;;5060703;28;20060;-90
2022/01/23 10:23:09;;;;;;;4.68;1.25;;;6.70;99.90;;;;;;5046168;28;20045;-89
2022/01/23 10:25:43;;;;;;;5.18;1.65;;;6.70;99.90;;;;;;5063463;28;20044;-88
2022/01/23 10:28:18;;;;;;;1.85;0.63;;;6.70;99.90;;;;;;5044278;28;20029;-86
2022/01/23 10:30:47;;;;;;;;;;;6.70;99.90;;;;;;5039430;28;20514;-86
2022/01/23 10:33:21;;;;;;;4.13;1.30;;;6.70;99.90;;;;;;5054667;28;20135;-85
2022/01/23 10:35:58;;;;;;;4.32;1.10;;;6.70;99.90;;;;;;5043271;28;20032;-85
2022/01/23 10:38:30;;;;;;;2.08;0.82;;;6.80;99.90;;;;;;5065444;28;20491;-86
2022/01/23 10:41:27;;;;;;;3.00;0.60;;;6.80;99.90;;;;;;5044617;28;20481;-86
2022/01/23 10:49:55;;;;;;;2.25;0.60;;;6.70;99.90;;;;;;5060094;28;20040;-87
2022/01/23 10:52:24;;;;;;;;;;;6.80;99.90;;;;;;5043943;28;20770;-85
2022/01/23 10:54:49;;;;;;;2.35;1.15;;;6.80;99.90;;;;;;5060517;28;19938;-86
2022/01/23 10:57:15;;;;;;;2.72;1.42;;;6.80;99.90;;;;;;5061337;28;20045;-86
2022/01/23 10:59:46;;;;;;;4.00;1.30;;;6.80;99.90;;;;;;5041699;28;20051;-86
2022/01/23 11:02:21;;;;;;;3.38;1.42;;;6.80;99.90;;;;;;5070767;28;20124;-87
2022/01/23 11:04:56;;;;;;;2.92;1.25;;;6.80;99.90;;;;;;5074556;28;20037;-87
2022/01/23 11:07:23;;;;;;;;;;;6.80;99.90;;;;;;5056034;28;20044;-85
2022/01/23 11:09:56;;;;;;;2.70;1.30;;;6.80;99.90;;;;;;5060473;28;19916;-86
2022/01/23 11:12:42;;;;;;;3.75;1.98;;;6.80;99.90;;;;;;5043605;28;20400;-86
2022/01/23 11:17:59;;;;;;;7.88;4.78;;;6.80;99.90;;;;;;5067887;28;20072;-86
2022/01/23 11:20:40;;;;;;;13.50;10.23;;;6.80;99.90;;;;;;5048265;28;20126;-86
2022/01/23 11:23:15;;;;;;;7.70;5.30;;;6.90;99.90;;;;;;5064124;28;20457;-85
2022/01/23 11:25:45;;;;;;;19.10;14.33;;;6.90;99.90;;;;;;5067893;28;20619;-86
2022/01/23 11:28:12;;;;;;;4.43;3.17;;;6.90;99.90;;;;;;5061419;28;20037;-85
2022/01/23 11:30:45;;;;;;;29.73;16.83;;;6.90;99.90;;;;;;5049123;28;20088;-84
2022/01/23 11:33:14;;;;;;;56.28;35.67;;;6.90;99.90;;;;;;5064917;28;20041;-86
2022/01/23 11:35:40;;;;;;;65.63;40.38;;;6.90;99.90;;;;;;5063366;28;20032;-86
2022/01/23 11:38:13;;;;;;;59.05;34.80;;;6.90;99.90;;;;;;5064770;28;20040;-87
2022/01/23 11:54:46;;;;;;;3.60;1.77;;;6.90;99.90;;;;;;5068433;28;20101;-85
2022/01/23 11:57:38;;;;;;;2.33;1.05;;;6.90;99.90;;;;;;5068750;28;20580;-87
2022/01/23 12:00:10;;;;;;;3.30;1.40;;;7.00;99.90;;;;;;5084009;28;20390;-87
2022/01/23 12:02:39;;;;;;;3.85;1.88;;;7.00;99.90;;;;;;5052624;28;20040;-88
2022/01/23 12:05:15;;;;;;;2.00;1.17;;;7.00;99.90;;;;;;5050258;28;20542;-87
2022/01/23 12:07:43;;;;;;;3.78;2.25;;;7.00;99.90;;;;;;5051104;28;20049;-87
2022/01/23 12:10:29;;;;;;;2.30;1.08;;;7.00;99.90;;;;;;5066444;28;20395;-87
2022/01/23 12:16:26;;;;;;;7.65;5.53;;;7.00;99.90;;;;;;5068917;28;20078;-88
2022/01/23 12:19:16;;;;;;;4.60;3.05;;;7.00;99.90;;;;;;5051757;28;20119;-87
2022/01/23 12:21:42;;;;;;;2.38;1.55;;;7.00;99.90;;;;;;5051312;28;20414;-87
2022/01/23 12:24:09;;;;;;;2.28;1.20;;;7.00;99.90;;;;;;5053697;28;20028;-87
2022/01/23 12:26:35;;;;;;;2.65;1.80;;;6.90;99.90;;;;;;5069123;28;20345;-87
2022/01/23 12:29:18;;;;;;;4.18;1.50;;;7.00;99.90;;;;;;5067414;28;20040;-88
2022/01/23 12:31:45;;;;;;;3.28;2.38;;;7.00;99.90;;;;;;5051666;28;20178;-88
2022/01/23 12:34:11;;;;;;;2.33;1.20;;;7.00;99.90;;;;;;5052381;28;20040;-87
2022/01/23 12:36:40;;;;;;;3.03;1.40;;;7.00;99.90;;;;;;5051308;28;20040;-87
2022/01/23 12:39:08;;;;;;;3.88;1.88;;;7.00;99.90;;;;;;5066439;28;20560;-88
2022/01/23 12:41:39;;;;;;;5.57;1.80;;;7.00;99.90;;;;;;5051805;28;20082;-88
2022/01/23 12:44:23;;;;;;;3.65;1.90;;;7.00;99.90;;;;;;5050883;28;20032;-88
2022/01/23 12:46:57;;;;;;;4.80;2.17;;;7.00;99.90;;;;;;5039689;28;20040;-88
2022/01/23 12:49:31;;;;;;;5.28;2.30;;;7.10;99.90;;;;;;5050283;28;20090;-88
2022/01/23 12:52:05;;;;;;;4.38;2.05;;;7.10;99.90;;;;;;5051877;28;20042;-87
2022/01/23 12:54:53;;;;;;;7.10;2.00;;;7.10;99.90;;;;;;5051652;28;20032;-87
2022/01/23 12:57:23;;;;;;;7.13;2.20;;;7.10;99.90;;;;;;5064412;28;20064;-88
2022/01/23 12:59:59;;;;;;;3.67;1.70;;;7.10;99.90;;;;;;5080906;28;20036;-88
2022/01/23 13:02:30;;;;;;;5.35;2.15;;;7.10;99.90;;;;;;5068257;28;20620;-87
2022/01/23 13:04:56;;;;;;;3.15;1.60;;;7.10;99.90;;;;;;5051888;28;20047;-88
2022/01/23 13:10:38;;;;;;;6.43;2.50;;;7.00;99.90;;;;;;5068452;28;20110;-88
2022/01/23 13:13:07;;;;;;;6.20;2.97;;;7.10;99.90;;;;;;5068099;28;20538;-87
2022/01/23 13:18:13;;;;;;;3.28;1.60;;;7.00;99.90;;;;;;5066459;28;20309;-88
2022/01/23 13:32:30;;;;;;;4.47;1.55;;;7.00;99.90;;;;;;5066926;28;20037;-88
2022/01/23 13:35:03;;;;;;;3.85;1.77;;;7.00;99.90;;;;;;5048370;28;20273;-88
2022/01/23 13:37:33;;;;;;;3.35;1.50;;;7.00;99.90;;;;;;5049367;28;20041;-88
2022/01/23 13:40:08;;;;;;;2.85;1.20;;;7.00;99.90;;;;;;5049525;28;20044;-89
2022/01/23 13:42:51;;;;;;;4.30;1.50;;;7.00;99.90;;;;;;5049446;28;20051;-88
2022/01/23 13:59:37;;;;;;;2.10;0.70;;;7.00;99.90;;;;;;5066662;28;20037;-89
2022/01/23 14:02:14;;;;;;;3.83;1.05;;;6.90;99.90;;;;;;5066987;28;20043;-89
2022/01/23 14:04:48;;;;;;;1.75;0.80;;;6.90;99.90;;;;;;5065945;28;20481;-89
2022/01/23 14:07:19;;;;;;;2.40;1.05;;;6.90;99.90;;;;;;5065434;28;20600;-89
2022/01/23 14:09:45;;;;;;;1.83;0.82;;;6.90;99.90;;;;;;5063711;28;20082;-87
2022/01/23 14:12:13;;;;;;;6.97;3.15;;;6.90;99.90;;;;;;5048457;28;20444;-88
2022/01/23 14:14:55;;;;;;;3.63;1.63;;;6.90;99.90;;;;;;5048391;28;20067;-86
2022/01/23 14:17:23;;;;;;;2.47;1.35;;;6.90;99.90;;;;;;5098231;28;20426;-87
2022/01/23 14:20:16;;;;;;;3.28;1.40;;;6.90;99.90;;;;;;5048700;28;20047;-87
2022/01/23 14:22:47;;;;;;;2.20;0.85;;;6.90;99.90;;;;;;5097387;28;20422;-87
2022/01/23 14:25:22;;;;;;;2.92;1.00;;;6.90;99.90;;;;;;5065632;28;20041;-87
2022/01/23 14:28:06;;;;;;;2.05;0.90;;;7.00;99.90;;;;;;5064006;28;20041;-85
2022/01/23 14:30:33;;;;;;;3.65;2.35;;;7.00;99.90;;;;;;5065466;28;20501;-86
2022/01/23 14:33:09;;;;;;;3.47;1.38;;;7.00;99.90;;;;;;5066350;28;20032;-86
2022/01/23 14:35:35;;;;;;;2.58;1.00;;;7.00;99.90;;;;;;5064511;28;20116;-87
2022/01/23 14:38:08;;;;;;;3.83;2.00;;;7.00;99.90;;;;;;5049469;28;20119;-86
2022/01/23 14:40:34;;;;;;;3.97;1.80;;;6.90;99.90;;;;;;5065934;28;20052;-87
2022/01/23 14:43:12;;;;;;;4.15;1.40;;;6.90;99.90;;;;;;5067012;28;20115;-88
2022/01/23 14:45:42;;;;;;;5.63;2.63;;;6.90;99.90;;;;;;5039377;28;20437;-87
2022/01/23 14:48:09;;;;;;;9.27;5.82;;;6.90;99.90;;;;;;5052493;28;20028;-88
2022/01/23 14:50:38;;;;;;;3.67;2.20;;;6.90;99.90;;;;;;5080963;28;20040;-89
2022/01/23 14:53:13;;;;;;;4.07;2.00;;;6.90;99.90;;;;;;5070285;28;20529;-85
2022/01/23 14:55:46;;;;;;;4.25;2.15;;;6.90;99.90;;;;;;5067597;28;20115;-88
2022/01/23 14:58:14;;;;;;;3.45;2.00;;;6.90;99.90;;;;;;5051623;28;20032;-87
2022/01/23 15:00:40;;;;;;;4.63;1.83;;;6.90;99.90;;;;;;5052894;28;20109;-87
2022/01/23 15:03:07;;;;;;;3.42;1.48;;;6.90;99.90;;;;;;5053148;28;20470;-87
2022/01/23 15:05:35;;;;;;;2.22;1.23;;;6.90;99.90;;;;;;5050863;28;20036;-87
2022/01/23 15:08:05;;;;;;;7.53;2.20;;;6.90;99.90;;;;;;5051845;28;20041;-88
2022/01/23 15:10:31;;;;;;;3.83;1.60;;;6.90;99.90;;;;;;5070159;28;20111;-86
2022/01/23 15:12:58;;;;;;;3.10;1.90;;;6.80;99.90;;;;;;5051334;28;20054;-87
2022/01/23 15:15:24;;;;;;;6.63;4.75;;;6.90;99.90;;;;;;5069366;28;20274;-88
2022/01/23 15:17:50;;;;;;;3.35;2.25;;;6.90;99.90;;;;;;5051848;28;20405;-88
2022/01/23 15:20:16;;;;;;;3.90;1.65;;;6.80;99.90;;;;;;5069357;28;20052;-88
2022/01/23 15:22:42;;;;;;;3.83;1.48;;;6.90;99.90;;;;;;5052184;28;20419;-88
2022/01/23 15:25:10;;;;;;;2.88;1.20;;;6.80;99.90;;;;;;5053559;28;20094;-87
2022/01/23 15:27:37;;;;;;;3.28;1.10;;;6.80;99.90;;;;;;5053112;28;20040;-88
2022/01/23 15:30:06;;;;;;;3.65;1.17;;;6.80;99.90;;;;;;5050717;28;20063;-84
2022/01/23 15:32:32;;;;;;;5.35;1.38;;;6.80;99.90;;;;;;5051766;28;20052;-87
2022/01/23 15:34:57;;;;;;;3.03;1.10;;;6.80;99.90;;;;;;5052879;28;20033;-87
2022/01/23 15:37:23;;;;;;;3.13;1.10;;;6.80;99.90;;;;;;5072941;28;20044;-87
2022/01/23 15:39:50;;;;;;;2.50;1.20;;;6.80;99.90;;;;;;5052227;28;20036;-86
2022/01/23 15:42:16;;;;;;;5.32;1.27;;;6.80;99.90;;;;;;5053050;28;20593;-86
2022/01/23 15:44:42;;;;;;;3.63;1.30;;;6.80;99.90;;;;;;5050926;28;20115;-87
2022/01/23 15:47:07;;;;;;;3.97;1.33;;;6.80;99.90;;;;;;5069095;28;20132;-87
2022/01/23 15:49:33;;;;;;;2.50;1.00;;;6.80;99.90;;;;;;5069656;28;20089;-86
2022/01/23 15:51:58;;;;;;;1.95;0.90;;;6.80;99.90;;;;;;5051913;28;20107;-87
2022/01/23 15:54:24;;;;;;;3.17;1.30;;;6.80;99.90;;;;;;5067638;28;20039;-86
2022/01/23 15:56:52;;;;;;;3.15;1.10;;;6.80;99.90;;;;;;5069759;28;20097;-87
2022/01/23 15:59:18;;;;;;;4.18;1.35;;;6.80;99.90;;;;;;5050612;28;20486;-86
2022/01/23 16:01:49;;;;;;;4.65;1.40;;;6.80;99.90;;;;;;5068606;28;20172;-86
2022/01/23 16:04:15;;;;;;;4.40;1.33;;;6.80;99.90;;;;;;5052213;28;20052;-87
2022/01/23 16:06:41;;;;;;;3.45;1.40;;;6.80;99.90;;;;;;5051643;28;20517;-86
2022/01/23 16:09:07;;;;;;;1.92;1.17;;;6.80;99.90;;;;;;5052336;28;20036;-87
2022/01/23 16:11:33;;;;;;;2.47;1.30;;;6.80;99.90;;;;;;5101278;28;20036;-87
2022/01/23 16:13:59;;;;;;;2.75;1.40;;;6.70;99.90;;;;;;5051542;28;20074;-87
2022/01/23 16:16:24;;;;;;;2.92;1.48;;;6.70;99.90;;;;;;5067914;28;20067;-87
2022/01/23 16:18:50;;;;;;;3.80;1.60;;;6.70;99.90;;;;;;5064746;28;20372;-87
2022/01/23 16:21:17;;;;;;;3.30;1.73;;;6.70;99.90;;;;;;5051746;28;20087;-87
2022/01/23 16:23:43;;;;;;;3.67;2.22;;;6.70;99.90;;;;;;5068195;28;20056;-87
2022/01/23 16:26:10;;;;;;;3.35;1.80;;;6.70;99.90;;;;;;5068710;28;20051;-87
2022/01/23 16:28:35;;;;;;;2.35;1.30;;;6.70;99.90;;;;;;5053475;28;20032;-87
2022/01/23 16:31:01;;;;;;;3.00;1.50;;;6.70;99.90;;;;;;5052670;28;20040;-88